createdAt,value
2023-02-24T00:02:05.407Z,97072.47
2023-02-24T00:04:16.500Z,97067.38
2023-02-24T00:06:24.329Z,97061.78
2023-02-24T00:08:32.292Z,97052.97
2023-02-24T00:10:40.513Z,97056.78
2023-02-24T00:12:49.469Z,97049.38
2023-02-24T00:14:57.433Z,97046.63
2023-02-24T00:17:09.180Z,97043.56
2023-02-24T00:19:19.854Z,97046.28
2023-02-24T00:21:28.595Z,97042.19
2023-02-24T00:23:36.466Z,97042.25
2023-02-24T00:25:44.300Z,97038.69
2023-02-24T00:27:52.091Z,97041.94
2023-02-24T00:30:01.911Z,97051.50
2023-02-24T00:32:14.131Z,97050.25
2023-02-24T00:34:22.261Z,97053.53
2023-02-24T00:36:33.886Z,97056.19
2023-02-24T00:38:45.201Z,97062.13
2023-02-24T00:40:53.006Z,97060.63
2023-02-24T00:43:01.106Z,97061.16
2023-02-24T00:45:12.260Z,97056.59
2023-02-24T00:47:23.429Z,97049.16
2023-02-24T00:49:32.479Z,97049.16
2023-02-24T00:51:42.859Z,97044.09
2023-02-24T00:53:50.758Z,97040.91
2023-02-24T00:56:02.535Z,97037.53
2023-02-24T00:58:10.490Z,97043.25
2023-02-24T01:00:20.336Z,97041.13
2023-02-24T01:02:30.887Z,97042.72
2023-02-24T01:04:40.032Z,97037.50
2023-02-24T01:06:49.753Z,97050.34
2023-02-24T01:08:58.865Z,97033.59
2023-02-24T01:11:22.467Z,97035.66
2023-02-24T01:13:31.111Z,97031.69
2023-02-24T01:15:39.202Z,97025.84
2023-02-24T01:17:49.789Z,97022.06
2023-02-24T01:20:00.468Z,97020.00
2023-02-24T01:22:11.245Z,97015.25
2023-02-24T01:24:20.442Z,97014.50
2023-02-24T01:26:29.172Z,97018.97
2023-02-24T01:28:37.678Z,97014.81
2023-02-24T01:30:45.833Z,97014.94
2023-02-24T01:32:57.576Z,97009.31
2023-02-24T01:35:06.559Z,97006.03
2023-02-24T01:37:16.732Z,97007.72
2023-02-24T01:39:26.088Z,97000.63
2023-02-24T01:41:33.695Z,97001.25
2023-02-24T01:44:02.091Z,97003.59
2023-02-24T01:46:13.999Z,96991.28
2023-02-24T01:48:24.485Z,96995.63
2023-02-24T01:50:33.128Z,96991.81
2023-02-24T01:52:41.760Z,96994.47
2023-02-24T01:54:52.583Z,96994.34
2023-02-24T01:57:01.018Z,96991.94
2023-02-24T01:59:09.402Z,96989.16
2023-02-24T02:01:21.169Z,96983.88
2023-02-24T02:03:35.522Z,96984.91
2023-02-24T02:05:48.728Z,96992.88
2023-02-24T02:07:57.498Z,96993.50
2023-02-24T02:10:07.148Z,96986.75
2023-02-24T02:12:15.819Z,96994.16
2023-02-24T02:14:29.756Z,96988.94
2023-02-24T02:17:02.757Z,96978.88
2023-02-24T02:19:42.566Z,96982.19
2023-02-24T02:22:09.939Z,96979.44
2023-02-24T02:24:50.098Z,96979.97
2023-02-24T02:27:21.265Z,96977.22
2023-02-24T02:30:03.289Z,96973.72
2023-02-24T02:32:33.245Z,96967.88
2023-02-24T02:34:57.478Z,96970.50
2023-02-24T02:37:12.109Z,96967.03
2023-02-24T02:39:28.630Z,96965.34
2023-02-24T02:41:45.343Z,96962.78
2023-02-24T02:43:57.323Z,96970.00
2023-02-24T02:46:14.915Z,96964.69
2023-02-24T02:48:28.189Z,96958.00
2023-02-24T02:50:47.303Z,96962.78
2023-02-24T02:53:00.850Z,96960.88
2023-02-24T02:55:14.315Z,96964.03
2023-02-24T02:57:26.087Z,96953.34
2023-02-24T02:59:37.977Z,96949.00
2023-02-24T03:01:47.445Z,96956.09
2023-02-24T03:03:58.990Z,96944.56
2023-02-24T03:06:13.679Z,96930.88
2023-02-24T03:08:29.683Z,96928.00
2023-02-24T03:10:39.879Z,96917.72
2023-02-24T03:12:52.479Z,96917.59
2023-02-24T03:15:05.051Z,96904.16
2023-02-24T03:17:21.625Z,96912.00
2023-02-24T03:19:37.422Z,96915.28
2023-02-24T03:21:53.237Z,96903.94
2023-02-24T03:24:02.090Z,96900.69
2023-02-24T03:26:19.077Z,96896.75
2023-02-24T03:28:35.900Z,96893.06
2023-02-24T03:30:49.804Z,96890.63
2023-02-24T03:33:02.507Z,96890.97
2023-02-24T03:35:19.770Z,96889.13
2023-02-24T03:37:33.670Z,96896.13
2023-02-24T03:39:41.819Z,96891.47
2023-02-24T03:42:07.305Z,96895.69
2023-02-24T03:44:16.560Z,96892.72
2023-02-24T03:46:24.605Z,96896.66
2023-02-24T03:48:33.074Z,96899.53
2023-02-24T03:50:42.634Z,96905.22
2023-02-24T03:53:33.840Z,96914.66
2023-02-24T03:55:59.854Z,96915.94
2023-02-24T03:58:21.489Z,96919.84
2023-02-24T04:00:38.609Z,96924.63
2023-02-24T04:02:49.858Z,96925.78
2023-02-24T04:05:06.655Z,96927.47
2023-02-24T04:07:37.536Z,96920.06
2023-02-24T04:09:53.333Z,96924.19
2023-02-24T04:12:09.551Z,96929.94
2023-02-24T04:14:26.328Z,96931.19
2023-02-24T04:16:40.968Z,96926.41
2023-02-24T04:18:53.932Z,96922.38
2023-02-24T04:21:06.144Z,96929.81
2023-02-24T04:23:19.895Z,96930.44
2023-02-24T04:25:31.354Z,96918.38
2023-02-24T04:27:39.764Z,96919.09
2023-02-24T04:29:58.110Z,96916.75
2023-02-24T04:32:10.496Z,96911.34
2023-02-24T04:34:20.392Z,96922.25
2023-02-24T04:36:29.515Z,96913.69
2023-02-24T04:38:38.445Z,96917.28
2023-02-24T04:40:49.980Z,96921.41
2023-02-24T04:42:58.113Z,96925.16
2023-02-24T04:45:10.185Z,96919.50
2023-02-24T04:47:18.006Z,96922.78
2023-02-24T04:49:26.212Z,96911.25
2023-02-24T04:51:34.144Z,96911.81
2023-02-24T04:53:42.353Z,96901.13
2023-02-24T04:55:53.503Z,96900.38
2023-02-24T04:58:02.525Z,96896.75
2023-02-24T05:00:20.995Z,96892.41
2023-02-24T05:02:29.173Z,96886.59
2023-02-24T05:04:39.104Z,96883.94
2023-02-24T05:06:47.600Z,96877.69
2023-02-24T05:08:55.374Z,96875.38
2023-02-24T05:11:07.040Z,96868.06
2023-02-24T05:13:17.198Z,96875.59
2023-02-24T05:15:31.336Z,96855.13
2023-02-24T05:17:39.920Z,96856.94
2023-02-24T05:20:00.129Z,96849.31
2023-02-24T05:22:10.620Z,96846.44
2023-02-24T05:24:18.903Z,96853.56
2023-02-24T05:26:32.159Z,96839.34
2023-02-24T05:28:40.958Z,96842.13
2023-02-24T05:30:48.956Z,96839.56
2023-02-24T05:32:56.846Z,96837.66
2023-02-24T05:35:05.604Z,96836.94
2023-02-24T05:37:16.749Z,96820.91
2023-02-24T05:39:26.724Z,96821.56
2023-02-24T05:41:38.900Z,96812.13
2023-02-24T05:43:48.539Z,96814.66
2023-02-24T05:45:57.459Z,96827.47
2023-02-24T05:48:06.001Z,96820.16
2023-02-24T05:50:16.013Z,96818.75
2023-02-24T05:52:24.208Z,96824.19
2023-02-24T05:54:45.861Z,96814.81
2023-02-24T05:56:57.158Z,96823.75
2023-02-24T05:59:09.045Z,96823.41
2023-02-24T06:01:19.448Z,96829.16
2023-02-24T06:03:31.236Z,96822.16
2023-02-24T06:05:39.864Z,96823.53
2023-02-24T06:07:47.674Z,96823.41
2023-02-24T06:09:57.486Z,96825.34
2023-02-24T06:12:08.096Z,96821.81
2023-02-24T06:14:16.190Z,96817.72
2023-02-24T06:16:26.141Z,96817.38
2023-02-24T06:18:34.112Z,96818.13
2023-02-24T06:20:42.134Z,96813.03
2023-02-24T06:22:54.310Z,96809.75
2023-02-24T06:25:02.164Z,96814.94
2023-02-24T06:27:18.021Z,96804.69
2023-02-24T06:29:29.811Z,96812.81
2023-02-24T06:31:37.838Z,96821.97
2023-02-24T06:33:45.933Z,96816.34
2023-02-24T06:35:53.877Z,96811.78
2023-02-24T06:38:02.268Z,96815.16
2023-02-24T06:40:16.050Z,96818.88
2023-02-24T06:42:29.661Z,96826.19
2023-02-24T06:44:39.208Z,96824.72
2023-02-24T06:46:46.931Z,96809.56
2023-02-24T06:48:54.887Z,96812.50
2023-02-24T06:51:06.212Z,96810.69
2023-02-24T06:53:17.053Z,96813.69
2023-02-24T06:55:31.153Z,96814.13
2023-02-24T06:57:44.062Z,96815.41
2023-02-24T06:59:52.422Z,96817.63
2023-02-24T07:02:03.534Z,96811.13
2023-02-24T07:04:21.191Z,96813.91
2023-02-24T07:06:29.611Z,96811.13
2023-02-24T07:08:37.418Z,96808.28
2023-02-24T07:10:45.219Z,96808.81
2023-02-24T07:12:56.152Z,96807.75
2023-02-24T07:15:05.333Z,96806.91
2023-02-24T07:17:14.925Z,96799.69
2023-02-24T07:19:25.179Z,96801.31
2023-02-24T07:21:39.688Z,96801.84
2023-02-24T07:23:49.923Z,96810.22
2023-02-24T07:25:58.692Z,96812.16
2023-02-24T07:28:09.117Z,96811.25
2023-02-24T07:30:18.405Z,96806.59
2023-02-24T07:32:26.301Z,96808.78
2023-02-24T07:34:35.122Z,96807.78
2023-02-24T07:36:49.442Z,96801.84
2023-02-24T07:38:58.280Z,96797.69
2023-02-24T07:41:06.961Z,96799.56
2023-02-24T07:43:17.439Z,96796.50
2023-02-24T07:45:27.792Z,96797.03
2023-02-24T07:47:36.009Z,96802.75
2023-02-24T07:49:43.917Z,96805.50
2023-02-24T07:51:57.754Z,96801.44
2023-02-24T07:54:05.901Z,96810.81
2023-02-24T07:56:17.944Z,96813.13
2023-02-24T07:58:28.628Z,96806.34
2023-02-24T08:00:50.773Z,96805.91
2023-02-24T08:03:00.681Z,96803.94
2023-02-24T08:05:09.349Z,96795.38
2023-02-24T08:07:17.176Z,96786.13
2023-02-24T08:09:40.021Z,96795.28
2023-02-24T08:11:52.448Z,96789.94
2023-02-24T08:14:03.087Z,96788.44
2023-02-24T08:16:12.370Z,96787.47
2023-02-24T08:18:20.353Z,96784.94
2023-02-24T08:20:30.215Z,96783.59
2023-02-24T08:22:38.310Z,96778.66
2023-02-24T08:24:50.218Z,96783.00
2023-02-24T08:27:06.706Z,96778.28
2023-02-24T08:29:20.595Z,96790.19
2023-02-24T08:31:28.731Z,96784.38
2023-02-24T08:33:37.478Z,96785.47
2023-02-24T08:35:45.998Z,96773.69
2023-02-24T08:38:10.546Z,96770.31
2023-02-24T08:40:38.148Z,96768.41
2023-02-24T08:42:46.695Z,96767.75
2023-02-24T08:44:58.327Z,96765.50
2023-02-24T08:47:07.768Z,96771.31
2023-02-24T08:49:17.328Z,96773.00
2023-02-24T08:51:29.185Z,96766.75
2023-02-24T08:53:40.670Z,96762.28
2023-02-24T08:55:51.921Z,96758.44
2023-02-24T08:58:01.989Z,96754.38
2023-02-24T09:00:28.272Z,96760.44
2023-02-24T09:02:40.598Z,96752.38
2023-02-24T09:04:49.749Z,96748.78
2023-02-24T09:07:10.660Z,96748.94
2023-02-24T09:09:21.441Z,96760.06
2023-02-24T09:11:29.349Z,96765.50
2023-02-24T09:13:44.007Z,96758.50
2023-02-24T09:15:54.760Z,96768.34
2023-02-24T09:18:07.699Z,96773.19
2023-02-24T09:20:32.775Z,96786.72
2023-02-24T09:22:52.786Z,96780.78
2023-02-24T09:25:14.354Z,96787.09
2023-02-24T09:27:29.552Z,96784.25
2023-02-24T09:29:49.373Z,96779.69
2023-02-24T09:32:04.808Z,96774.84
2023-02-24T09:34:18.793Z,96774.28
2023-02-24T09:36:30.929Z,96771.09
2023-02-24T09:38:52.038Z,96763.56
2023-02-24T09:41:18.464Z,96758.78
2023-02-24T09:43:28.298Z,96763.91
2023-02-24T09:45:36.310Z,96757.84
2023-02-24T09:47:57.181Z,96756.06
2023-02-24T09:50:16.242Z,96743.22
2023-02-24T09:52:39.872Z,96749.28
2023-02-24T09:55:12.548Z,96753.91
2023-02-24T09:57:26.864Z,96754.53
2023-02-24T10:00:01.473Z,96754.66
2023-02-24T10:02:28.344Z,96746.66
2023-02-24T10:05:07.379Z,96744.44
2023-02-24T10:07:18.509Z,96746.75
2023-02-24T10:09:34.708Z,96745.84
2023-02-24T10:11:53.734Z,96738.03
2023-02-24T10:14:06.421Z,96737.50
2023-02-24T10:16:24.204Z,96742.25
2023-02-24T10:18:36.072Z,96744.03
2023-02-24T10:20:49.507Z,96743.19
2023-02-24T10:23:02.542Z,96738.13
2023-02-24T10:25:28.251Z,96728.22
2023-02-24T10:27:44.447Z,96727.28
2023-02-24T10:30:05.869Z,96738.09
2023-02-24T10:32:31.904Z,96739.16
2023-02-24T10:34:39.856Z,96727.31
2023-02-24T10:36:51.270Z,96728.66
2023-02-24T10:39:08.569Z,96728.28
2023-02-24T10:41:17.880Z,96721.22
2023-02-24T10:43:33.865Z,96718.50
2023-02-24T10:45:45.443Z,96724.59
2023-02-24T10:47:59.540Z,96717.78
2023-02-24T10:50:12.819Z,96720.91
2023-02-24T10:52:37.320Z,96709.41
2023-02-24T10:55:05.369Z,96715.97
2023-02-24T10:57:42.589Z,96715.13
2023-02-24T11:00:13.533Z,96704.28
2023-02-24T11:02:30.040Z,96705.88
2023-02-24T11:05:04.694Z,96695.84
2023-02-24T11:07:24.907Z,96692.56
2023-02-24T11:09:44.030Z,96686.19
2023-02-24T11:12:04.407Z,96687.03
2023-02-24T11:14:32.316Z,96684.69
2023-02-24T11:17:03.695Z,96681.13
2023-02-24T11:19:14.356Z,96677.13
2023-02-24T11:21:22.801Z,96670.25
2023-02-24T11:23:36.364Z,96667.34
2023-02-24T11:25:51.893Z,96664.09
2023-02-24T11:28:00.741Z,96655.63
2023-02-24T11:30:27.956Z,96653.91
2023-02-24T11:32:49.831Z,96656.06
2023-02-24T11:35:05.842Z,96654.03
2023-02-24T11:37:24.511Z,96653.03
2023-02-24T11:39:47.503Z,96646.91
2023-02-24T11:42:01.655Z,96639.94
2023-02-24T11:44:28.822Z,96641.00
2023-02-24T11:46:41.870Z,96637.97
2023-02-24T11:48:57.093Z,96625.44
2023-02-24T11:51:08.087Z,96624.53
2023-02-24T11:53:28.246Z,96630.69
2023-02-24T11:55:42.599Z,96620.19
2023-02-24T11:57:57.425Z,96614.50
2023-02-24T12:00:13.487Z,96599.78
2023-02-24T12:02:30.315Z,96597.72
2023-02-24T12:04:43.256Z,96593.81
2023-02-24T12:06:57.071Z,96580.88
2023-02-24T12:09:15.716Z,96579.41
2023-02-24T12:11:35.729Z,96568.91
2023-02-24T12:13:53.219Z,96556.81
2023-02-24T12:16:08.024Z,96554.97
2023-02-24T12:18:23.350Z,96553.84
2023-02-24T12:20:35.912Z,96557.53
2023-02-24T12:22:50.714Z,96554.50
2023-02-24T12:24:58.866Z,96549.16
2023-02-24T12:27:16.429Z,96545.03
2023-02-24T12:29:42.702Z,96545.81
2023-02-24T12:32:00.688Z,96555.94
2023-02-24T12:34:15.736Z,96545.28
2023-02-24T12:36:38.334Z,96538.91
2023-02-24T12:38:56.077Z,96533.63
2023-02-24T12:41:20.258Z,96530.66
2023-02-24T12:43:38.311Z,96516.25
2023-02-24T12:45:55.117Z,96514.34
2023-02-24T12:48:12.046Z,96500.41
2023-02-24T12:50:30.930Z,96508.25
2023-02-24T12:52:50.332Z,96505.69
2023-02-24T12:55:09.103Z,96502.31
2023-02-24T12:57:26.651Z,96494.28
2023-02-24T12:59:41.343Z,96502.59
2023-02-24T13:02:01.431Z,96504.59
2023-02-24T13:04:32.424Z,96496.84
2023-02-24T13:06:50.969Z,96502.88
2023-02-24T13:09:06.290Z,96498.53
2023-02-24T13:11:25.659Z,96498.03
2023-02-24T13:13:40.274Z,96490.19
2023-02-24T13:15:56.751Z,96484.34
2023-02-24T13:18:07.408Z,96479.59
2023-02-24T13:20:17.354Z,96473.63
2023-02-24T13:22:32.887Z,96468.03
2023-02-24T13:24:44.226Z,96470.09
2023-02-24T13:26:52.333Z,96466.00
2023-02-24T13:29:04.073Z,96464.50
2023-02-24T13:31:14.797Z,96459.25
2023-02-24T13:33:33.802Z,96448.16
2023-02-24T13:35:41.551Z,96446.81
2023-02-24T13:37:51.687Z,96445.81
2023-02-24T13:39:59.634Z,96442.59
2023-02-24T13:42:09.518Z,96439.28
2023-02-24T13:44:30.685Z,96442.09
2023-02-24T13:46:57.552Z,96439.66
2023-02-24T13:49:39.944Z,96429.50
2023-02-24T13:52:03.386Z,96425.03
2023-02-24T13:54:26.488Z,96422.06
2023-02-24T13:56:42.290Z,96418.56
2023-02-24T13:59:10.663Z,96412.47
2023-02-24T14:01:21.120Z,96411.88
2023-02-24T14:03:31.702Z,96415.03
2023-02-24T14:05:45.758Z,96406.25
2023-02-24T14:07:56.359Z,96397.88
2023-02-24T14:10:07.535Z,96401.81
2023-02-24T14:12:43.620Z,96403.69
2023-02-24T14:14:53.712Z,96400.63
2023-02-24T14:17:04.640Z,96387.69
2023-02-24T14:19:17.909Z,96382.63
2023-02-24T14:21:30.523Z,96383.00
2023-02-24T14:23:38.696Z,96391.66
2023-02-24T14:25:46.887Z,96387.22
2023-02-24T14:27:57.817Z,96372.50
2023-02-24T14:30:05.953Z,96372.97
2023-02-24T14:32:22.895Z,96375.31
2023-02-24T14:34:34.721Z,96383.28
2023-02-24T14:36:49.323Z,96375.81
2023-02-24T14:39:08.103Z,96371.78
2023-02-24T14:41:23.800Z,96372.50
2023-02-24T14:43:32.512Z,96370.25
2023-02-24T14:45:51.724Z,96366.16
2023-02-24T14:48:00.087Z,96352.78
2023-02-24T14:50:08.984Z,96341.31
2023-02-24T14:52:30.797Z,96343.47
2023-02-24T14:54:46.572Z,96344.47
2023-02-24T14:56:54.794Z,96349.84
2023-02-24T14:59:06.463Z,96342.81
2023-02-24T15:01:24.261Z,96353.88
2023-02-24T15:03:35.761Z,96345.97
2023-02-24T15:05:46.399Z,96342.84
2023-02-24T15:07:58.593Z,96335.50
2023-02-24T15:10:08.504Z,96329.84
2023-02-24T15:12:24.966Z,96333.28
2023-02-24T15:14:34.847Z,96329.72
2023-02-24T15:16:47.039Z,96315.09
2023-02-24T15:18:56.208Z,96310.69
2023-02-24T15:21:05.189Z,96309.97
2023-02-24T15:23:31.841Z,96309.34
2023-02-24T15:25:47.753Z,96301.06
2023-02-24T15:27:58.453Z,96305.78
2023-02-24T15:30:09.788Z,96307.13
2023-02-24T15:32:20.766Z,96297.50
2023-02-24T15:34:31.720Z,96302.47
2023-02-24T15:36:39.893Z,96301.00
2023-02-24T15:38:54.816Z,96297.09
2023-02-24T15:41:05.202Z,96291.91
2023-02-24T15:43:14.231Z,96299.19
2023-02-24T15:45:28.953Z,96291.47
2023-02-24T15:47:45.382Z,96287.00
2023-02-24T15:49:53.246Z,96281.69
2023-02-24T15:52:04.325Z,96284.47
2023-02-24T15:54:19.576Z,96283.25
2023-02-24T15:56:27.473Z,96281.13
2023-02-24T15:58:43.254Z,96286.00
2023-02-24T16:00:54.472Z,96283.50
2023-02-24T16:03:02.693Z,96282.72
2023-02-24T16:05:12.781Z,96279.38
2023-02-24T16:07:24.416Z,96275.00
2023-02-24T16:09:39.639Z,96279.41
2023-02-24T16:11:50.424Z,96280.13
2023-02-24T16:14:00.647Z,96277.88
2023-02-24T16:16:09.411Z,96274.44
2023-02-24T16:18:22.528Z,96261.09
2023-02-24T16:20:33.678Z,96261.97
2023-02-24T16:22:41.722Z,96250.88
2023-02-24T16:24:52.728Z,96250.03
2023-02-24T16:27:01.057Z,96248.72
2023-02-24T16:29:11.761Z,96249.19
2023-02-24T16:31:20.298Z,96254.03
2023-02-24T16:33:29.185Z,96251.38
2023-02-24T16:35:38.968Z,96252.81
2023-02-24T16:37:49.336Z,96249.72
2023-02-24T16:40:01.552Z,96260.44
2023-02-24T16:42:10.190Z,96254.31
2023-02-24T16:44:19.587Z,96254.94
2023-02-24T16:46:41.454Z,96251.06
2023-02-24T16:48:51.222Z,96256.16
2023-02-24T16:50:59.284Z,96245.56
2023-02-24T16:53:07.388Z,96250.56
2023-02-24T16:55:18.432Z,96257.97
2023-02-24T16:57:26.200Z,96250.13
2023-02-24T16:59:34.574Z,96248.34
2023-02-24T17:01:42.848Z,96240.66
2023-02-24T17:03:53.137Z,96242.47
2023-02-24T17:06:01.198Z,96235.28
2023-02-24T17:08:09.237Z,96231.16
2023-02-24T17:10:20.931Z,96225.78
2023-02-24T17:12:28.804Z,96216.84
2023-02-24T17:14:36.928Z,96222.53
2023-02-24T17:16:44.912Z,96216.03
2023-02-24T17:18:53.070Z,96219.78
2023-02-24T17:21:01.057Z,96215.69
2023-02-24T17:23:09.300Z,96224.72
2023-02-24T17:25:23.789Z,96230.00
2023-02-24T17:27:31.838Z,96233.84
2023-02-24T17:29:39.718Z,96235.41
2023-02-24T17:31:47.805Z,96224.81
2023-02-24T17:33:55.698Z,96227.81
2023-02-24T17:36:03.978Z,96237.34
2023-02-24T17:38:14.551Z,96231.09
2023-02-24T17:40:25.870Z,96231.94
2023-02-24T17:42:33.700Z,96231.72
2023-02-24T17:44:41.611Z,96235.56
2023-02-24T17:46:49.619Z,96229.88
2023-02-24T17:48:57.667Z,96232.66
2023-02-24T17:51:05.561Z,96231.34
2023-02-24T17:53:14.105Z,96226.41
2023-02-24T17:55:24.693Z,96221.38
2023-02-24T17:57:34.351Z,96217.25
2023-02-24T17:59:46.103Z,96215.84
2023-02-24T18:01:54.038Z,96214.25
2023-02-24T18:04:02.273Z,96210.31
2023-02-24T18:06:13.357Z,96227.59
2023-02-24T18:08:21.523Z,96240.59
2023-02-24T18:10:32.298Z,96246.75
2023-02-24T18:12:40.392Z,96249.75
2023-02-24T18:14:59.109Z,96246.63
2023-02-24T18:17:14.484Z,96245.41
2023-02-24T18:19:22.459Z,96240.38
2023-02-24T18:21:30.517Z,96237.47
2023-02-24T18:23:40.989Z,96235.19
2023-02-24T18:25:51.473Z,96230.97
2023-02-24T18:27:59.801Z,96227.50
2023-02-24T18:30:10.269Z,96222.09
2023-02-24T18:32:18.726Z,96233.41
2023-02-24T18:34:26.979Z,96233.16
2023-02-24T18:36:35.095Z,96226.75
2023-02-24T18:38:43.272Z,96234.25
2023-02-24T18:41:00.694Z,96236.16
2023-02-24T18:43:08.895Z,96240.59
2023-02-24T18:45:17.150Z,96246.13
2023-02-24T18:47:25.227Z,96243.03
2023-02-24T18:49:33.722Z,96245.63
2023-02-24T18:51:42.672Z,96256.59
2023-02-24T18:53:52.736Z,96260.09
2023-02-24T18:56:11.619Z,96255.38
2023-02-24T18:58:19.972Z,96256.97
2023-02-24T19:00:29.396Z,96259.75
2023-02-24T19:02:39.177Z,96264.41
2023-02-24T19:04:48.472Z,96265.53
2023-02-24T19:06:56.689Z,96262.34
2023-02-24T19:09:09.935Z,96259.97
2023-02-24T19:11:22.690Z,96253.34
2023-02-24T19:13:30.867Z,96262.34
2023-02-24T19:15:40.189Z,96258.88
2023-02-24T19:17:50.319Z,96263.69
2023-02-24T19:19:58.818Z,96262.25
2023-02-24T19:22:09.822Z,96258.78
2023-02-24T19:24:18.591Z,96256.84
2023-02-24T19:26:30.842Z,96254.31
2023-02-24T19:28:39.311Z,96256.97
2023-02-24T19:30:48.075Z,96247.91
2023-02-24T19:32:56.203Z,96251.53
2023-02-24T19:35:04.538Z,96254.75
2023-02-24T19:37:12.916Z,96266.66
2023-02-24T19:39:22.681Z,96265.09
2023-02-24T19:41:34.379Z,96266.63
2023-02-24T19:43:44.846Z,96265.31
2023-02-24T19:45:55.867Z,96251.59
2023-02-24T19:48:06.672Z,96264.84
2023-02-24T19:50:18.578Z,96263.84
2023-02-24T19:52:27.189Z,96268.34
2023-02-24T19:54:46.756Z,96269.13
2023-02-24T19:57:00.592Z,96262.66
2023-02-24T19:59:10.481Z,96259.53
2023-02-24T20:01:18.590Z,96258.81
2023-02-24T20:03:28.399Z,96259.94
2023-02-24T20:05:38.992Z,96262.63
2023-02-24T20:07:47.148Z,96258.66
2023-02-24T20:09:55.153Z,96262.75
2023-02-24T20:12:05.938Z,96265.75
2023-02-24T20:14:15.451Z,96262.16
2023-02-24T20:16:26.244Z,96271.19
2023-02-24T20:18:34.523Z,96276.81
2023-02-24T20:20:42.542Z,96274.31
2023-02-24T20:22:50.560Z,96278.28
2023-02-24T20:25:00.640Z,96271.56
2023-02-24T20:27:12.930Z,96278.38
2023-02-24T20:29:24.887Z,96286.09
2023-02-24T20:31:33.029Z,96286.56
2023-02-24T20:33:43.180Z,96280.03
2023-02-24T20:35:51.543Z,96282.22
2023-02-24T20:37:59.446Z,96270.56
2023-02-24T20:40:09.069Z,96273.94
2023-02-24T20:42:19.564Z,96282.59
2023-02-24T20:44:27.593Z,96282.94
2023-02-24T20:46:38.419Z,96283.97
2023-02-24T20:48:46.953Z,96287.03
2023-02-24T20:50:55.421Z,96289.03
2023-02-24T20:53:04.383Z,96298.09
2023-02-24T20:55:13.585Z,96302.38
2023-02-24T20:57:25.175Z,96298.78
2023-02-24T20:59:33.069Z,96303.97
2023-02-24T21:01:42.156Z,96303.88
2023-02-24T21:03:50.552Z,96303.81
2023-02-24T21:06:09.173Z,96315.25
2023-02-24T21:08:17.855Z,96310.41
2023-02-24T21:10:26.081Z,96302.25
2023-02-24T21:12:36.881Z,96309.59
2023-02-24T21:14:45.521Z,96298.53
2023-02-24T21:16:53.529Z,96301.16
2023-02-24T21:19:01.443Z,96314.63
2023-02-24T21:21:10.425Z,96297.09
2023-02-24T21:23:18.744Z,96304.56
2023-02-24T21:25:28.214Z,96303.69
2023-02-24T21:27:39.715Z,96305.06
2023-02-24T21:29:49.312Z,96322.66
2023-02-24T21:31:58.174Z,96324.00
2023-02-24T21:34:06.661Z,96332.56
2023-02-24T21:36:17.166Z,96339.13
2023-02-24T21:38:25.116Z,96332.63
2023-02-24T21:40:33.735Z,96340.66
2023-02-24T21:42:47.099Z,96346.50
2023-02-24T21:44:59.775Z,96335.75
2023-02-24T21:47:08.538Z,96335.25
2023-02-24T21:49:18.330Z,96348.19
2023-02-24T21:51:27.973Z,96336.13
2023-02-24T21:53:39.641Z,96346.56
2023-02-24T21:55:47.628Z,96352.16
2023-02-24T21:57:58.241Z,96361.41
2023-02-24T22:00:12.545Z,96352.69
2023-02-24T22:02:22.083Z,96354.75
2023-02-24T22:04:30.102Z,96350.56
2023-02-24T22:06:41.122Z,96353.38
2023-02-24T22:08:49.238Z,96355.00
2023-02-24T22:11:01.739Z,96351.50
2023-02-24T22:13:12.209Z,96351.63
2023-02-24T22:15:20.599Z,96348.38
2023-02-24T22:17:29.389Z,96358.84
2023-02-24T22:19:37.443Z,96363.75
2023-02-24T22:21:45.790Z,96353.22
2023-02-24T22:23:55.376Z,96351.06
2023-02-24T22:26:06.192Z,96346.66
2023-02-24T22:28:17.066Z,96344.56
2023-02-24T22:30:25.731Z,96345.06
2023-02-24T22:32:34.072Z,96347.19
2023-02-24T22:34:42.286Z,96347.59
2023-02-24T22:36:53.810Z,96347.09
2023-02-24T22:39:14.975Z,96346.47
2023-02-24T22:41:25.611Z,96348.72
2023-02-24T22:43:36.217Z,96349.28
2023-02-24T22:45:43.973Z,96346.63
2023-02-24T22:47:51.980Z,96353.03
2023-02-24T22:50:00.011Z,96350.41
2023-02-24T22:52:07.911Z,96353.41
2023-02-24T22:54:15.767Z,96357.84
2023-02-24T22:56:26.462Z,96356.72
2023-02-24T22:58:37.693Z,96367.31
2023-02-24T23:00:47.195Z,96359.41
2023-02-24T23:02:56.550Z,96365.06
2023-02-24T23:05:04.615Z,96369.75
2023-02-24T23:07:14.301Z,96367.41
2023-02-24T23:09:22.561Z,96374.06
2023-02-24T23:11:32.739Z,96373.50
2023-02-24T23:13:45.081Z,96363.94
2023-02-24T23:15:53.435Z,96367.50
2023-02-24T23:18:02.663Z,96371.81
2023-02-24T23:20:14.479Z,96367.97
2023-02-24T23:22:22.482Z,96374.28
2023-02-24T23:24:31.130Z,96376.59
2023-02-24T23:26:40.689Z,96386.09
2023-02-24T23:28:51.171Z,96390.69
2023-02-24T23:30:59.250Z,96389.59
2023-02-24T23:33:08.689Z,96390.53
2023-02-24T23:35:17.114Z,96386.84
2023-02-24T23:37:25.000Z,96387.22
2023-02-24T23:39:33.078Z,96381.97
2023-02-24T23:41:41.594Z,96392.94
2023-02-24T23:43:52.211Z,96393.16
2023-02-24T23:46:00.112Z,96387.22
2023-02-24T23:48:08.380Z,96392.56
2023-02-24T23:50:16.399Z,96403.19
2023-02-24T23:52:24.254Z,96408.00
2023-02-24T23:54:43.808Z,96396.59
2023-02-24T23:56:52.286Z,96404.88
2023-02-24T23:59:02.964Z,96415.41
